createdAt,value
2017-05-24T00:00:32.357Z,14.66
2017-05-24T00:01:12.936Z,14.77
2017-05-24T00:01:53.530Z,14.62
2017-05-24T00:02:34.107Z,14.6
2017-05-24T00:03:14.690Z,14.63
2017-05-24T00:03:55.274Z,14.55
2017-05-24T00:04:35.860Z,14.45
2017-05-24T00:05:16.438Z,14.43
2017-05-24T00:05:57.022Z,14.51
2017-05-24T00:06:37.593Z,14.53
2017-05-24T00:07:18.166Z,14.53
2017-05-24T00:07:58.757Z,14.58
2017-05-24T00:08:39.362Z,14.53
2017-05-24T00:09:19.948Z,14.54
2017-05-24T00:10:00.574Z,14.47
2017-05-24T00:10:41.161Z,14.45
2017-05-24T00:11:21.726Z,14.58
2017-05-24T00:12:02.305Z,14.5
2017-05-24T00:12:42.906Z,14.68
2017-05-24T00:13:23.505Z,14.5
2017-05-24T00:14:04.085Z,14.48
2017-05-24T00:14:44.663Z,14.45
2017-05-24T00:15:25.249Z,14.5
2017-05-24T00:16:05.826Z,14.51
2017-05-24T00:16:46.419Z,14.55
2017-05-24T00:17:26.982Z,14.59
2017-05-24T00:18:07.605Z,14.62
2017-05-24T00:18:48.182Z,14.47
2017-05-24T00:19:28.790Z,14.53
2017-05-24T00:20:09.382Z,14.5
2017-05-24T00:20:49.992Z,14.58
2017-05-24T00:21:30.577Z,14.51
2017-05-24T00:22:11.200Z,14.54
2017-05-24T00:22:51.799Z,14.53
2017-05-24T00:23:32.400Z,14.5
2017-05-24T00:24:12.982Z,14.6
2017-05-24T00:24:53.564Z,14.63
2017-05-24T00:25:34.158Z,14.54
2017-05-24T00:26:14.747Z,14.48
2017-05-24T00:26:55.359Z,14.54
2017-05-24T00:27:35.939Z,14.6
2017-05-24T00:28:16.517Z,14.6
2017-05-24T00:28:57.087Z,14.54
2017-05-24T00:29:37.677Z,14.62
2017-05-24T00:30:18.258Z,14.54
2017-05-24T00:30:58.864Z,14.45
2017-05-24T00:31:39.465Z,14.58
2017-05-24T00:32:20.047Z,14.53
2017-05-24T00:33:00.629Z,14.47
2017-05-24T00:33:41.232Z,14.55
2017-05-24T00:34:21.827Z,14.53
2017-05-24T00:35:02.408Z,14.36
2017-05-24T00:35:42.981Z,14.33
2017-05-24T00:36:23.572Z,14.41
2017-05-24T00:37:04.146Z,14.44
2017-05-24T00:37:44.743Z,14.36
2017-05-24T00:38:25.316Z,14.33
2017-05-24T00:39:05.906Z,14.35
2017-05-24T00:39:46.495Z,14.36
2017-05-24T00:40:27.080Z,14.41
2017-05-24T00:41:07.679Z,14.41
2017-05-24T00:41:48.260Z,14.37
2017-05-24T00:42:28.836Z,14.33
2017-05-24T00:43:09.422Z,14.36
2017-05-24T00:43:50.012Z,14.37
2017-05-24T00:44:30.589Z,14.36
2017-05-24T00:45:11.167Z,14.36
2017-05-24T00:45:51.753Z,14.43
2017-05-24T00:46:32.337Z,14.44
2017-05-24T00:47:12.969Z,14.32
2017-05-24T00:47:53.565Z,14.3
2017-05-24T00:48:34.160Z,14.28
2017-05-24T00:49:14.746Z,14.25
2017-05-24T00:49:55.331Z,14.25
2017-05-24T00:50:35.915Z,14.32
2017-05-24T00:51:16.496Z,14.25
2017-05-24T00:51:57.109Z,14.18
2017-05-24T00:52:37.736Z,14.2
2017-05-24T00:53:18.330Z,14.15
2017-05-24T00:53:58.906Z,14.23
2017-05-24T00:54:39.488Z,14.18
2017-05-24T00:55:20.064Z,14.15
2017-05-24T00:56:00.657Z,14.14
2017-05-24T00:56:41.247Z,14.12
2017-05-24T00:57:21.831Z,14.11
2017-05-24T00:58:02.414Z,14.04
2017-05-24T00:58:42.990Z,13.97
2017-05-24T00:59:23.585Z,14.04
2017-05-24T01:00:04.161Z,13.96
2017-05-24T01:00:44.751Z,13.95
2017-05-24T01:01:25.338Z,13.92
2017-05-24T01:02:05.931Z,13.97
2017-05-24T01:02:46.507Z,13.96
2017-05-24T01:03:27.090Z,13.9
2017-05-24T01:04:07.668Z,13.87
2017-05-24T01:04:48.273Z,13.9
2017-05-24T01:05:28.858Z,14.04
2017-05-24T01:06:09.460Z,13.96
2017-05-24T01:06:50.047Z,13.9
2017-05-24T01:07:30.633Z,13.95
2017-05-24T01:08:11.214Z,13.92
2017-05-24T01:08:51.799Z,13.9
2017-05-24T01:09:32.374Z,13.95
2017-05-24T01:10:12.957Z,14
2017-05-24T01:10:53.540Z,13.89
2017-05-24T01:11:34.175Z,13.89
2017-05-24T01:12:14.768Z,13.96
2017-05-24T01:12:55.352Z,13.97
2017-05-24T01:13:35.931Z,14
2017-05-24T01:14:16.515Z,13.96
2017-05-24T01:14:57.097Z,13.9
2017-05-24T01:15:37.679Z,13.92
2017-05-24T01:16:18.252Z,13.89
2017-05-24T01:16:58.826Z,13.92
2017-05-24T01:17:39.416Z,13.87
2017-05-24T01:18:19.988Z,13.87
2017-05-24T01:19:00.570Z,13.92
2017-05-24T01:19:41.148Z,13.87
2017-05-24T01:20:21.732Z,13.87
2017-05-24T01:21:02.340Z,13.86
2017-05-24T01:21:42.929Z,13.9
2017-05-24T01:22:23.512Z,13.89
2017-05-24T01:23:04.116Z,13.9
2017-05-24T01:23:44.700Z,13.9
2017-05-24T01:24:25.285Z,13.9
2017-05-24T01:25:05.859Z,13.9
2017-05-24T01:25:46.448Z,13.87
2017-05-24T01:26:27.030Z,13.87
2017-05-24T01:27:07.615Z,13.87
2017-05-24T01:27:48.219Z,13.86
2017-05-24T01:28:28.882Z,13.89
2017-05-24T01:29:09.527Z,13.86
2017-05-24T01:29:50.106Z,13.87
2017-05-24T01:30:30.675Z,13.87
2017-05-24T01:31:11.273Z,13.87
2017-05-24T01:31:51.849Z,13.89
2017-05-24T01:32:32.429Z,13.93
2017-05-24T01:33:13.013Z,13.95
2017-05-24T01:33:53.616Z,13.9
2017-05-24T01:34:34.213Z,13.9
2017-05-24T01:35:14.782Z,13.9
2017-05-24T01:35:55.372Z,13.92
2017-05-24T01:36:35.988Z,13.87
2017-05-24T01:37:16.601Z,13.87
2017-05-24T01:37:57.192Z,13.92
2017-05-24T01:38:37.770Z,13.86
2017-05-24T01:39:18.367Z,13.85
2017-05-24T01:39:58.958Z,13.86
2017-05-24T01:40:39.523Z,13.93
2017-05-24T01:41:20.111Z,13.9
2017-05-24T01:42:00.698Z,13.93
2017-05-24T01:42:41.311Z,13.92
2017-05-24T01:43:21.895Z,13.96
2017-05-24T01:44:02.486Z,13.89
2017-05-24T01:44:43.075Z,13.92
2017-05-24T01:45:23.646Z,13.86
2017-05-24T01:46:04.232Z,14
2017-05-24T01:46:44.818Z,14.03
2017-05-24T01:47:25.383Z,13.93
2017-05-24T01:48:05.960Z,13.92
2017-05-24T01:48:46.553Z,13.93
2017-05-24T01:49:27.128Z,13.92
2017-05-24T01:50:07.700Z,13.92
2017-05-24T01:50:48.272Z,14
2017-05-24T01:51:28.873Z,13.96
2017-05-24T01:52:09.449Z,13.9
2017-05-24T01:52:50.038Z,13.87
2017-05-24T01:53:30.635Z,13.93
2017-05-24T01:54:11.205Z,13.87
2017-05-24T01:54:51.795Z,13.92
2017-05-24T01:55:32.393Z,13.9
2017-05-24T01:56:13.011Z,13.89
2017-05-24T01:56:53.595Z,13.9
2017-05-24T01:57:34.168Z,13.95
2017-05-24T01:58:14.750Z,13.95
2017-05-24T01:58:55.322Z,13.89
2017-05-24T01:59:35.910Z,13.89
2017-05-24T02:00:16.490Z,13.96
2017-05-24T02:00:57.061Z,13.89
2017-05-24T02:01:37.696Z,13.77
2017-05-24T02:02:18.302Z,13.74
2017-05-24T02:02:58.882Z,13.77
2017-05-24T02:03:39.462Z,13.72
2017-05-24T02:04:20.046Z,13.68
2017-05-24T02:05:00.616Z,13.71
2017-05-24T02:05:41.217Z,13.72
2017-05-24T02:06:21.810Z,13.74
2017-05-24T02:07:02.380Z,13.77
2017-05-24T02:07:42.983Z,13.7
2017-05-24T02:08:23.554Z,13.72
2017-05-24T02:09:04.128Z,13.7
2017-05-24T02:09:44.741Z,13.68
2017-05-24T02:10:25.328Z,13.6
2017-05-24T02:11:05.897Z,13.68
2017-05-24T02:11:46.481Z,13.75
2017-05-24T02:12:27.076Z,13.72
2017-05-24T02:13:07.651Z,13.7
2017-05-24T02:13:48.227Z,13.67
2017-05-24T02:14:28.822Z,13.68
2017-05-24T02:15:09.406Z,13.63
2017-05-24T02:15:49.977Z,13.7
2017-05-24T02:16:30.556Z,13.65
2017-05-24T02:17:11.139Z,13.67
2017-05-24T02:17:51.729Z,13.68
2017-05-24T02:18:32.309Z,13.63
2017-05-24T02:19:12.903Z,13.62
2017-05-24T02:19:53.486Z,13.62
2017-05-24T02:20:34.109Z,13.56
2017-05-24T02:21:14.694Z,13.57
2017-05-24T02:21:55.279Z,13.65
2017-05-24T02:22:35.860Z,13.67
2017-05-24T02:23:16.456Z,13.63
2017-05-24T02:23:57.031Z,13.67
2017-05-24T02:24:37.613Z,13.57
2017-05-24T02:25:18.198Z,13.6
2017-05-24T02:25:58.786Z,13.59
2017-05-24T02:26:39.371Z,13.54
2017-05-24T02:27:19.969Z,13.53
2017-05-24T02:28:00.553Z,13.47
2017-05-24T02:28:41.137Z,13.47
2017-05-24T02:29:21.718Z,13.53
2017-05-24T02:30:02.310Z,13.56
2017-05-24T02:30:42.884Z,13.47
2017-05-24T02:31:23.469Z,13.44
2017-05-24T02:32:04.063Z,13.44
2017-05-24T02:32:44.638Z,13.44
2017-05-24T02:33:25.249Z,13.47
2017-05-24T02:34:05.832Z,13.47
2017-05-24T02:34:46.416Z,13.53
2017-05-24T02:35:27.010Z,13.44
2017-05-24T02:36:07.583Z,13.46
2017-05-24T02:36:48.163Z,13.49
2017-05-24T02:37:28.760Z,13.53
2017-05-24T02:38:09.354Z,13.47
2017-05-24T02:38:49.927Z,13.53
2017-05-24T02:39:30.500Z,13.53
2017-05-24T02:40:11.081Z,13.57
2017-05-24T02:40:51.673Z,13.57
2017-05-24T02:41:32.258Z,13.59
2017-05-24T02:42:12.929Z,13.63
2017-05-24T02:42:53.512Z,13.67
2017-05-24T02:43:34.087Z,13.67
2017-05-24T02:44:14.667Z,13.72
2017-05-24T02:44:55.246Z,13.72
2017-05-24T02:45:35.834Z,13.72
2017-05-24T02:46:16.408Z,13.72
2017-05-24T02:46:56.982Z,13.75
2017-05-24T02:47:37.575Z,13.79
2017-05-24T02:48:18.168Z,13.78
2017-05-24T02:48:58.776Z,13.77
2017-05-24T02:49:39.364Z,13.86
2017-05-24T02:50:19.949Z,13.79
2017-05-24T02:51:00.510Z,13.83
2017-05-24T02:51:41.111Z,13.83
2017-05-24T02:52:21.708Z,13.83
2017-05-24T02:53:02.338Z,13.87
2017-05-24T02:53:42.978Z,13.83
2017-05-24T02:54:23.565Z,13.85
2017-05-24T02:55:04.135Z,13.81
2017-05-24T02:55:44.725Z,13.86
2017-05-24T02:56:25.298Z,13.87
2017-05-24T02:57:05.889Z,13.89
2017-05-24T02:57:46.475Z,13.86
2017-05-24T02:58:27.053Z,13.92
2017-05-24T02:59:07.639Z,13.85
2017-05-24T02:59:48.216Z,13.99
2017-05-24T03:00:28.796Z,13.89
2017-05-24T03:01:09.382Z,13.87
2017-05-24T03:01:49.965Z,13.77
2017-05-24T03:02:30.558Z,13.77
2017-05-24T03:03:11.130Z,13.77
2017-05-24T03:03:51.732Z,13.77
2017-05-24T03:04:32.306Z,13.78
2017-05-24T03:05:12.911Z,13.77
2017-05-24T03:05:53.503Z,13.81
2017-05-24T03:06:34.090Z,13.78
2017-05-24T03:07:14.691Z,13.77
2017-05-24T03:07:55.286Z,13.77
2017-05-24T03:08:35.864Z,13.77
2017-05-24T03:09:16.439Z,13.77
2017-05-24T03:09:57.023Z,13.83
2017-05-24T03:10:37.630Z,13.77
2017-05-24T03:11:18.212Z,13.83
2017-05-24T03:11:58.806Z,13.83
2017-05-24T03:12:39.382Z,13.79
2017-05-24T03:13:19.947Z,13.72
2017-05-24T03:14:00.565Z,13.77
2017-05-24T03:14:41.128Z,13.79
2017-05-24T03:15:21.714Z,13.77
2017-05-24T03:16:02.290Z,13.78
2017-05-24T03:16:42.878Z,13.79
2017-05-24T03:17:23.459Z,13.74
2017-05-24T03:18:04.041Z,13.75
2017-05-24T03:18:44.634Z,13.78
2017-05-24T03:19:25.222Z,13.78
2017-05-24T03:20:05.795Z,13.75
2017-05-24T03:20:46.393Z,13.7
2017-05-24T03:21:26.972Z,13.79
2017-05-24T03:22:07.551Z,13.83
2017-05-24T03:22:48.137Z,13.77
2017-05-24T03:23:28.729Z,13.78
2017-05-24T03:24:09.310Z,13.72
2017-05-24T03:24:50.000Z,13.71
2017-05-24T03:25:30.603Z,13.71
2017-05-24T03:26:11.176Z,13.71
2017-05-24T03:26:51.820Z,13.68
2017-05-24T03:27:32.332Z,13.68
2017-05-24T03:28:12.924Z,13.71
2017-05-24T03:28:53.525Z,13.7
2017-05-24T03:29:34.103Z,13.74
2017-05-24T03:30:14.699Z,13.71
2017-05-24T03:30:55.279Z,13.77
2017-05-24T03:31:35.868Z,13.72
2017-05-24T03:32:16.477Z,13.7
2017-05-24T03:32:57.060Z,13.79
2017-05-24T03:33:37.710Z,13.83
2017-05-24T03:34:18.321Z,13.83
2017-05-24T03:34:58.907Z,13.77
2017-05-24T03:35:39.500Z,13.74
2017-05-24T03:36:20.086Z,13.71
2017-05-24T03:37:00.656Z,13.72
2017-05-24T03:37:41.245Z,13.74
2017-05-24T03:38:21.844Z,13.7
2017-05-24T03:39:02.447Z,13.68
2017-05-24T03:39:43.021Z,13.67
2017-05-24T03:40:23.612Z,13.72
2017-05-24T03:41:04.219Z,13.72
2017-05-24T03:41:44.817Z,13.75
2017-05-24T03:42:25.401Z,13.83
2017-05-24T03:43:05.989Z,13.77
2017-05-24T03:43:46.566Z,13.86
2017-05-24T03:44:27.151Z,13.75
2017-05-24T03:45:07.779Z,13.79
2017-05-24T03:45:48.370Z,13.74
2017-05-24T03:46:28.948Z,13.78
2017-05-24T03:47:09.534Z,13.78
2017-05-24T03:47:50.120Z,13.79
2017-05-24T03:48:30.707Z,13.83
2017-05-24T03:49:11.335Z,13.89
2017-05-24T03:49:51.910Z,13.9
2017-05-24T03:50:32.504Z,13.89
2017-05-24T03:51:13.107Z,13.93
2017-05-24T03:51:53.678Z,13.89
2017-05-24T03:52:34.254Z,13.86
2017-05-24T03:53:14.856Z,13.9
2017-05-24T03:53:55.434Z,13.9
2017-05-24T03:54:36.004Z,14.05
2017-05-24T03:55:16.601Z,13.92
2017-05-24T03:55:57.199Z,14
2017-05-24T03:56:37.788Z,13.9
2017-05-24T03:57:18.471Z,13.89
2017-05-24T03:57:59.053Z,13.92
2017-05-24T03:58:39.627Z,13.93
2017-05-24T03:59:20.218Z,14
2017-05-24T04:00:00.822Z,13.93
2017-05-24T04:00:41.409Z,13.95
2017-05-24T04:01:22.000Z,13.89
2017-05-24T04:02:02.606Z,13.87
2017-05-24T04:02:43.208Z,13.86
2017-05-24T04:03:23.793Z,13.87
2017-05-24T04:04:04.371Z,13.89
2017-05-24T04:04:44.954Z,13.86
2017-05-24T04:05:25.526Z,13.86
2017-05-24T04:06:06.110Z,13.79
2017-05-24T04:06:46.701Z,13.78
2017-05-24T04:07:27.278Z,13.79
2017-05-24T04:08:07.886Z,13.86
2017-05-24T04:08:48.478Z,13.78
2017-05-24T04:09:29.078Z,13.81
2017-05-24T04:10:09.654Z,13.79
2017-05-24T04:10:50.248Z,13.78
2017-05-24T04:11:30.848Z,13.81
2017-05-24T04:12:11.427Z,13.78
2017-05-24T04:12:52.005Z,13.79
2017-05-24T04:13:32.586Z,13.87
2017-05-24T04:14:13.171Z,13.86
2017-05-24T04:14:53.748Z,13.77
2017-05-24T04:15:34.394Z,13.83
2017-05-24T04:16:14.967Z,13.78
2017-05-24T04:16:55.555Z,13.78
2017-05-24T04:17:36.152Z,13.78
2017-05-24T04:18:16.738Z,13.86
2017-05-24T04:18:57.335Z,13.93
2017-05-24T04:19:37.921Z,13.83
2017-05-24T04:20:18.505Z,13.83
2017-05-24T04:20:59.084Z,13.9
2017-05-24T04:21:39.675Z,13.81
2017-05-24T04:22:20.265Z,13.85
2017-05-24T04:23:00.874Z,13.86
2017-05-24T04:23:41.441Z,13.87
2017-05-24T04:24:22.025Z,13.95
2017-05-24T04:25:02.609Z,13.92
2017-05-24T04:25:43.187Z,13.87
2017-05-24T04:26:23.768Z,13.86
2017-05-24T04:27:04.358Z,13.92
2017-05-24T04:27:44.941Z,13.9
2017-05-24T04:28:25.525Z,13.87
2017-05-24T04:29:06.085Z,13.9
2017-05-24T04:29:46.683Z,13.89
2017-05-24T04:30:27.262Z,13.9
2017-05-24T04:31:07.893Z,13.96
2017-05-24T04:31:48.476Z,13.89
2017-05-24T04:32:29.052Z,13.99
2017-05-24T04:33:09.631Z,13.99
2017-05-24T04:33:50.257Z,14
2017-05-24T04:34:30.840Z,13.92
2017-05-24T04:35:11.412Z,13.92
2017-05-24T04:35:51.986Z,13.96
2017-05-24T04:36:32.558Z,13.87
2017-05-24T04:37:13.140Z,13.83
2017-05-24T04:37:53.729Z,13.85
2017-05-24T04:38:34.331Z,13.85
2017-05-24T04:39:14.918Z,13.92
2017-05-24T04:39:55.496Z,13.92
2017-05-24T04:40:36.082Z,13.92
2017-05-24T04:41:16.677Z,13.89
2017-05-24T04:41:57.263Z,13.92
2017-05-24T04:42:37.847Z,13.87
2017-05-24T04:43:18.574Z,13.9
2017-05-24T04:43:59.169Z,13.9
2017-05-24T04:44:39.742Z,13.9
2017-05-24T04:45:20.322Z,13.87
2017-05-24T04:46:00.900Z,13.89
2017-05-24T04:46:41.486Z,13.89
2017-05-24T04:47:22.052Z,13.93
2017-05-24T04:48:02.635Z,13.86
2017-05-24T04:48:43.216Z,13.74
2017-05-24T04:49:23.823Z,13.79
2017-05-24T04:50:04.404Z,13.77
2017-05-24T04:50:44.983Z,13.79
2017-05-24T04:51:25.557Z,13.78
2017-05-24T04:52:06.196Z,13.74
2017-05-24T04:52:46.771Z,13.71
2017-05-24T04:53:27.341Z,13.68
2017-05-24T04:54:07.942Z,13.7
2017-05-24T04:54:48.552Z,13.72
2017-05-24T04:55:29.134Z,13.77
2017-05-24T04:56:09.717Z,13.78
2017-05-24T04:56:50.292Z,13.77
2017-05-24T04:57:30.870Z,13.77
2017-05-24T04:58:11.462Z,13.78
2017-05-24T04:58:52.041Z,13.81
2017-05-24T04:59:32.633Z,13.77
2017-05-24T05:00:13.210Z,13.83
2017-05-24T05:00:53.792Z,13.78
2017-05-24T05:01:34.492Z,13.77
2017-05-24T05:02:15.070Z,13.79
2017-05-24T05:02:55.669Z,13.79
2017-05-24T05:03:36.246Z,13.77
2017-05-24T05:04:16.837Z,13.72
2017-05-24T05:04:57.420Z,13.71
2017-05-24T05:05:38.014Z,13.63
2017-05-24T05:06:18.612Z,13.57
2017-05-24T05:06:59.217Z,13.67
2017-05-24T05:07:39.786Z,13.77
2017-05-24T05:08:20.391Z,13.7
2017-05-24T05:09:00.984Z,13.75
2017-05-24T05:09:41.561Z,13.83
2017-05-24T05:10:22.142Z,13.79
2017-05-24T05:11:02.713Z,13.77
2017-05-24T05:11:43.289Z,13.81
2017-05-24T05:12:23.896Z,13.83
2017-05-24T05:13:04.471Z,13.79
2017-05-24T05:13:45.084Z,13.81
2017-05-24T05:14:25.736Z,13.81
2017-05-24T05:15:06.325Z,13.85
2017-05-24T05:15:46.906Z,13.87
2017-05-24T05:16:27.487Z,13.93
2017-05-24T05:17:08.072Z,13.92
2017-05-24T05:17:48.654Z,13.93
2017-05-24T05:18:29.242Z,13.92
2017-05-24T05:19:09.847Z,13.87
2017-05-24T05:19:50.414Z,13.95
2017-05-24T05:20:31.001Z,13.87
2017-05-24T05:21:11.580Z,13.9
2017-05-24T05:21:52.177Z,13.9
2017-05-24T05:22:32.756Z,13.92
2017-05-24T05:23:13.446Z,13.86
2017-05-24T05:23:56.100Z,13.92
2017-05-24T05:24:37.256Z,13.9
2017-05-24T05:25:18.615Z,13.89
2017-05-24T05:25:59.986Z,13.87
2017-05-24T05:26:41.296Z,13.85
2017-05-24T05:27:22.651Z,13.92
2017-05-24T05:28:03.926Z,13.83
2017-05-24T05:28:45.078Z,13.75
2017-05-24T05:29:26.414Z,13.74
2017-05-24T05:30:07.764Z,13.74
2017-05-24T05:30:49.158Z,13.74
2017-05-24T05:31:48.150Z,13.72
2017-05-24T05:32:32.506Z,13.72
2017-05-24T05:33:14.298Z,13.72
2017-05-24T05:33:55.693Z,13.83
2017-05-24T05:34:36.937Z,13.79
2017-05-24T05:35:18.024Z,13.79
2017-05-24T05:35:59.399Z,13.71
2017-05-24T05:36:41.098Z,13.67
2017-05-24T05:37:22.571Z,13.75
2017-05-24T05:38:04.426Z,13.72
2017-05-24T05:38:45.653Z,13.79
2017-05-24T05:39:26.848Z,13.77
2017-05-24T05:40:08.122Z,13.71
2017-05-24T05:40:49.364Z,13.72
2017-05-24T05:41:30.749Z,13.72
2017-05-24T05:42:11.996Z,13.71
2017-05-24T05:42:53.961Z,13.78
2017-05-24T05:43:35.209Z,13.79
2017-05-24T05:44:16.337Z,13.75
2017-05-24T05:44:57.711Z,13.89
2017-05-24T05:45:38.979Z,13.85
2017-05-24T05:46:19.646Z,13.87
2017-05-24T05:47:00.251Z,13.85
2017-05-24T05:47:40.833Z,13.89
2017-05-24T05:48:21.404Z,14
2017-05-24T05:49:01.984Z,13.93
2017-05-24T05:49:42.583Z,14.03
2017-05-24T05:50:23.155Z,14.1
2017-05-24T05:51:03.753Z,14.15
2017-05-24T05:51:44.359Z,14.2
2017-05-24T05:52:24.938Z,14.22
2017-05-24T05:53:05.535Z,14.17
2017-05-24T05:53:46.111Z,14.17
2017-05-24T05:54:26.689Z,14.1
2017-05-24T05:55:07.278Z,14.03
2017-05-24T05:55:47.862Z,13.96
2017-05-24T05:56:28.461Z,13.97
2017-05-24T05:57:09.065Z,13.87
2017-05-24T05:57:49.660Z,13.95
2017-05-24T05:58:30.256Z,13.93
2017-05-24T05:59:10.879Z,13.89
2017-05-24T05:59:51.473Z,13.87
2017-05-24T06:00:32.062Z,13.9
2017-05-24T06:01:12.672Z,13.87
2017-05-24T06:01:53.253Z,13.93
2017-05-24T06:02:34.636Z,13.89
2017-05-24T06:03:16.029Z,13.9
2017-05-24T06:03:57.427Z,13.92
2017-05-24T06:04:38.709Z,13.9
2017-05-24T06:05:19.959Z,13.9
2017-05-24T06:06:01.245Z,13.89
2017-05-24T06:06:42.617Z,13.92
2017-05-24T06:07:23.934Z,13.85
2017-05-24T06:08:05.170Z,13.81
2017-05-24T06:08:46.517Z,13.83
2017-05-24T06:09:27.881Z,13.9
2017-05-24T06:10:09.251Z,13.87
2017-05-24T06:10:50.605Z,13.87
2017-05-24T06:11:32.156Z,13.87
2017-05-24T06:12:13.549Z,13.89
2017-05-24T06:12:54.906Z,13.78
2017-05-24T06:13:36.225Z,13.77
2017-05-24T06:14:17.633Z,13.77
2017-05-24T06:14:58.939Z,13.74
2017-05-24T06:15:40.345Z,13.78
2017-05-24T06:16:21.678Z,13.86
2017-05-24T06:17:02.983Z,13.92
2017-05-24T06:17:44.218Z,13.92
2017-05-24T06:18:25.591Z,13.89
2017-05-24T06:19:06.965Z,13.87
2017-05-24T06:19:48.286Z,13.9
2017-05-24T06:20:29.605Z,13.9
2017-05-24T06:21:10.910Z,13.9
2017-05-24T06:21:51.491Z,13.96
2017-05-24T06:22:32.304Z,13.96
2017-05-24T06:23:12.904Z,13.9
2017-05-24T06:23:53.494Z,13.95
2017-05-24T06:24:34.077Z,14.04
2017-05-24T06:25:14.707Z,14.04
2017-05-24T06:25:55.354Z,14.04
2017-05-24T06:26:35.967Z,14.11
2017-05-24T06:27:16.664Z,14.08
2017-05-24T06:27:57.258Z,14.12
2017-05-24T06:28:37.846Z,14.18
2017-05-24T06:29:18.435Z,14.18
2017-05-24T06:29:59.022Z,14.22
2017-05-24T06:30:39.613Z,14.18
2017-05-24T06:31:20.235Z,14.08
2017-05-24T06:32:00.829Z,14.11
2017-05-24T06:32:41.431Z,14.04
2017-05-24T06:33:22.042Z,14
2017-05-24T06:34:02.623Z,13.87
2017-05-24T06:34:43.224Z,13.9
2017-05-24T06:35:23.828Z,13.9
2017-05-24T06:36:04.428Z,13.93
2017-05-24T06:36:45.021Z,13.89
2017-05-24T06:37:25.607Z,13.83
2017-05-24T06:38:06.222Z,13.79
2017-05-24T06:38:46.804Z,13.77
2017-05-24T06:39:27.405Z,13.81
2017-05-24T06:40:08.009Z,13.77
2017-05-24T06:40:48.579Z,13.78
2017-05-24T06:41:29.165Z,13.87
2017-05-24T06:42:09.761Z,13.87
2017-05-24T06:42:50.355Z,13.95
2017-05-24T06:43:30.940Z,13.89
2017-05-24T06:44:11.558Z,13.87
2017-05-24T06:44:52.174Z,13.87
2017-05-24T06:45:32.766Z,13.92
2017-05-24T06:46:13.349Z,13.9
2017-05-24T06:46:53.931Z,13.89
2017-05-24T06:47:34.513Z,13.87
2017-05-24T06:48:15.101Z,13.83
2017-05-24T06:48:55.683Z,13.86
2017-05-24T06:49:36.275Z,13.81
2017-05-24T06:50:16.859Z,13.79
2017-05-24T06:50:57.450Z,13.74
2017-05-24T06:51:38.035Z,13.75
2017-05-24T06:52:18.647Z,13.75
2017-05-24T06:52:59.239Z,13.68
2017-05-24T06:53:39.828Z,13.71
2017-05-24T06:54:20.410Z,13.72
2017-05-24T06:55:00.999Z,13.71
2017-05-24T06:55:41.592Z,13.78
2017-05-24T06:56:22.160Z,13.83
2017-05-24T06:57:02.784Z,13.79
2017-05-24T06:57:43.361Z,13.75
2017-05-24T06:58:23.960Z,13.83
2017-05-24T06:59:04.559Z,13.78
2017-05-24T06:59:45.239Z,13.72
2017-05-24T07:00:25.820Z,13.77
2017-05-24T07:01:06.413Z,13.72
2017-05-24T07:01:46.998Z,13.72
2017-05-24T07:02:27.612Z,13.75
2017-05-24T07:03:08.202Z,13.77
2017-05-24T07:03:48.796Z,13.81
2017-05-24T07:04:29.402Z,13.9
2017-05-24T07:05:09.990Z,13.92
2017-05-24T07:05:50.572Z,14.03
2017-05-24T07:06:31.144Z,14.05
2017-05-24T07:07:11.758Z,14.15
2017-05-24T07:07:52.341Z,14.15
2017-05-24T07:08:32.938Z,14.22
2017-05-24T07:09:13.543Z,14.26
2017-05-24T07:09:54.143Z,14.29
2017-05-24T07:10:34.736Z,14.36
2017-05-24T07:11:15.320Z,14.37
2017-05-24T07:11:55.906Z,14.33
2017-05-24T07:12:36.491Z,14.33
2017-05-24T07:13:17.082Z,14.5
2017-05-24T07:13:57.681Z,14.48
2017-05-24T07:14:38.316Z,14.48
2017-05-24T07:15:18.910Z,14.5
2017-05-24T07:15:59.503Z,14.51
2017-05-24T07:16:40.131Z,14.58
2017-05-24T07:17:20.715Z,14.53
2017-05-24T07:18:01.293Z,14.54
2017-05-24T07:18:41.871Z,14.41
2017-05-24T07:19:22.458Z,14.55
2017-05-24T07:20:03.084Z,14.48
2017-05-24T07:20:43.665Z,14.48
2017-05-24T07:21:24.253Z,14.5
2017-05-24T07:22:04.839Z,14.55
2017-05-24T07:22:45.434Z,14.47
2017-05-24T07:23:26.021Z,14.51
2017-05-24T07:24:06.610Z,14.5
2017-05-24T07:24:47.207Z,14.58
2017-05-24T07:25:27.778Z,14.5
2017-05-24T07:26:08.370Z,14.55
2017-05-24T07:26:48.967Z,14.47
2017-05-24T07:27:29.566Z,14.53
2017-05-24T07:28:10.168Z,14.53
2017-05-24T07:28:50.777Z,14.53
2017-05-24T07:29:31.364Z,14.54
2017-05-24T07:30:11.940Z,14.53
2017-05-24T07:30:52.530Z,14.58
2017-05-24T07:31:33.169Z,14.48
2017-05-24T07:32:13.739Z,14.66
2017-05-24T07:32:54.329Z,14.53
2017-05-24T07:33:34.922Z,14.55
2017-05-24T07:34:15.518Z,14.69
2017-05-24T07:34:56.105Z,14.66
2017-05-24T07:35:36.680Z,14.79
2017-05-24T07:36:17.264Z,14.88
2017-05-24T07:36:57.861Z,14.94
2017-05-24T07:37:38.466Z,14.96
2017-05-24T07:38:19.310Z,15.07
2017-05-24T07:38:59.955Z,15.1
2017-05-24T07:39:40.545Z,15.09
2017-05-24T07:40:21.132Z,15.11
2017-05-24T07:41:01.719Z,15.21
2017-05-24T07:41:42.311Z,15.27
2017-05-24T07:42:22.943Z,15.24
2017-05-24T07:43:03.538Z,15.24
2017-05-24T07:43:44.128Z,15.31
2017-05-24T07:44:24.744Z,15.25
2017-05-24T07:45:05.363Z,15.25
2017-05-24T07:45:45.944Z,15.25
2017-05-24T07:46:26.563Z,15.39
2017-05-24T07:47:07.162Z,15.42
2017-05-24T07:47:47.736Z,15.39
2017-05-24T07:48:28.371Z,15.43
2017-05-24T07:49:08.953Z,15.33
2017-05-24T07:49:49.534Z,15.31
2017-05-24T07:50:30.153Z,15.42
2017-05-24T07:51:10.762Z,15.31
2017-05-24T07:51:51.349Z,15.24
2017-05-24T07:52:31.967Z,15.33
2017-05-24T07:53:12.557Z,15.24
2017-05-24T07:53:58.121Z,15.29
2017-05-24T07:54:43.290Z,15.21
2017-05-24T07:55:41.083Z,15.19
2017-05-24T07:56:25.351Z,15.31
2017-05-24T07:57:05.954Z,15.27
2017-05-24T07:57:46.551Z,15.19
2017-05-24T07:58:27.171Z,15.21
2017-05-24T07:59:07.769Z,15.31
2017-05-24T07:59:48.349Z,15.27
2017-05-24T08:00:28.933Z,15.15
2017-05-24T08:01:09.639Z,15.19
2017-05-24T08:01:58.738Z,15.11
2017-05-24T08:02:39.343Z,15.14
2017-05-24T08:03:25.513Z,15.19
2017-05-24T08:04:06.216Z,15.17
2017-05-24T08:04:46.804Z,15.18
2017-05-24T08:05:27.407Z,15.18
2017-05-24T08:06:07.997Z,15.09
2017-05-24T08:06:48.606Z,15.02
2017-05-24T08:07:30.053Z,14.97
2017-05-24T08:08:10.636Z,14.89
2017-05-24T08:08:52.282Z,14.86
2017-05-24T08:09:36.902Z,14.81
2017-05-24T08:10:35.829Z,14.72
2017-05-24T08:11:16.409Z,14.73
2017-05-24T08:11:57.997Z,14.58
2017-05-24T08:12:39.937Z,14.59
2017-05-24T08:13:20.520Z,14.54
2017-05-24T08:14:01.104Z,14.55
2017-05-24T08:14:41.683Z,14.59
2017-05-24T08:15:22.282Z,14.55
2017-05-24T08:16:02.884Z,14.6
2017-05-24T08:16:43.512Z,14.65
2017-05-24T08:17:24.117Z,14.66
2017-05-24T08:18:04.705Z,14.69
2017-05-24T08:18:45.293Z,14.69
2017-05-24T08:19:25.876Z,14.7
2017-05-24T08:20:06.465Z,14.72
2017-05-24T08:20:47.048Z,14.78
2017-05-24T08:21:27.628Z,14.79
2017-05-24T08:22:08.215Z,14.82
2017-05-24T08:22:48.801Z,14.82
2017-05-24T08:23:29.397Z,14.84
2017-05-24T08:24:10.017Z,14.91
2017-05-24T08:24:50.581Z,14.94
2017-05-24T08:25:31.153Z,14.92
2017-05-24T08:26:11.751Z,14.99
2017-05-24T08:26:52.333Z,14.97
2017-05-24T08:27:32.910Z,14.94
2017-05-24T08:28:13.514Z,15
2017-05-24T08:28:54.105Z,15
2017-05-24T08:29:34.722Z,14.96
2017-05-24T08:30:15.312Z,14.94
2017-05-24T08:30:55.926Z,14.96
2017-05-24T08:31:37.209Z,14.97
2017-05-24T08:32:18.452Z,15
2017-05-24T08:33:01.639Z,14.97
2017-05-24T08:33:42.995Z,15
2017-05-24T08:34:23.595Z,14.96
2017-05-24T08:35:04.183Z,14.96
2017-05-24T08:35:44.851Z,14.85
2017-05-24T08:36:25.437Z,14.91
2017-05-24T08:37:06.000Z,14.97
2017-05-24T08:37:50.116Z,14.89
2017-05-24T08:38:30.698Z,14.91
2017-05-24T08:39:11.294Z,14.86
2017-05-24T08:39:51.881Z,14.79
2017-05-24T08:40:32.463Z,14.77
2017-05-24T08:41:13.047Z,14.69
2017-05-24T08:41:53.623Z,14.62
2017-05-24T08:42:34.205Z,14.72
2017-05-24T08:43:14.802Z,14.69
2017-05-24T08:43:55.390Z,14.68
2017-05-24T08:44:35.980Z,14.6
2017-05-24T08:45:16.565Z,14.54
2017-05-24T08:45:57.175Z,14.51
2017-05-24T08:46:37.769Z,14.5
2017-05-24T08:47:18.375Z,14.48
2017-05-24T08:47:58.985Z,14.53